Weather reports worldwide

Advertisment
Mönchengladbach, Germany (10403): temperature & dewpoint: 24.10.2020 11:00:00 - 30.10.2020 11:00:00 (CET)Mönchengladbach, Germany (10403): wind speed: 24.10.2020 11:00:00 - 30.10.2020 11:00:00 (CET)Mönchengladbach, Germany (10403): wind direction: 24.10.2020 11:00:00 - 30.10.2020 11:00:00 (CET)Mönchengladbach, Germany (10403): visibility: 24.10.2020 11:00:00 - 30.10.2020 11:00:00 (CET)
Date & Time tt [°C] td [°C] ff [km/h] ff [kn] dd vv [km]
30.10.2020 11:00:00 - - - - - -
30.10.2020 10:00:00 14,0 12,0 21 11 WSW 10
30.10.2020 09:00:00 14,0 12,0 16 9 WSW 10
30.10.2020 08:00:00 14,0 12,0 16 9 WSW 10
30.10.2020 07:00:00 14,0 12,0 24 13 WSW 10
30.10.2020 06:00:00 14,0 12,0 21 11 SW 10
30.10.2020 05:00:00 14,0 11,0 15 8 WSW 10
30.10.2020 04:00:00 14,0 12,0 18 10 WSW 10
30.10.2020 03:00:00 14,0 12,0 18 10 WSW 10
30.10.2020 02:00:00 14,0 11,0 16 9 WSW 10
30.10.2020 01:00:00 13,0 12,0 16 9 WSW 10
30.10.2020 00:00:00 13,0 12,0 15 8 WSW 7
29.10.2020 23:00:00 12,0 11,0 16 9 SW 6
29.10.2020 22:00:00 12,0 11,0 18 10 SW 10
29.10.2020 21:00:00 11,0 10,0 15 8 SSW 10
29.10.2020 20:00:00 11,0 10,0 13 7 S 8
29.10.2020 19:00:00 11,0 10,0 9 5 S 8
29.10.2020 18:00:00 11,0 10,0 11 6 SSW 8
29.10.2020 17:00:00 11,0 10,0 11 6 SSW 5
29.10.2020 16:00:00 11,0 10,0 11 6 SSW 7
29.10.2020 15:00:00 12,0 9,0 11 6 WSW 10
29.10.2020 14:00:00 12,0 8,0 15 8 WSW 10
29.10.2020 13:00:00 12,0 8,0 15 8 WSW 10
29.10.2020 12:00:00 12,0 8,0 11 6 WSW 10
29.10.2020 11:00:00 11,0 7,0 15 8 WSW 10
29.10.2020 10:00:00 11,0 7,0 13 7 WSW 10
29.10.2020 09:00:00 10,0 7,0 16 9 WSW 10
29.10.2020 08:00:00 9,0 7,0 13 7 WSW 10
29.10.2020 07:00:00 9,0 7,0 11 6 WSW 10
29.10.2020 06:00:00 10,0 7,0 16 9 WSW 10
29.10.2020 05:00:00 10,0 8,0 13 7 WSW 10
29.10.2020 04:00:00 10,0 7,0 16 9 WSW 10
29.10.2020 03:00:00 11,0 8,0 15 8 WSW 10
29.10.2020 02:00:00 10,0 8,0 16 9 WSW 10
29.10.2020 01:00:00 10,0 8,0 16 9 WSW 10
29.10.2020 00:00:00 10,0 8,0 18 10 SW 10
28.10.2020 23:00:00 10,0 8,0 16 9 SW 10
28.10.2020 22:00:00 11,0 9,0 15 8 WSW 6
28.10.2020 21:00:00 13,0 8,0 21 11 SSW 10
28.10.2020 20:00:00 13,0 8,0 21 11 SSW 10
28.10.2020 19:00:00 13,0 7,0 21 11 SSW 10
28.10.2020 18:00:00 13,0 7,0 16 9 SSW 10
28.10.2020 17:00:00 13,0 7,0 28 15 SW 10
28.10.2020 16:00:00 14,0 7,0 26 14 SW 10
28.10.2020 15:00:00 14,0 6,0 28 15 SW 10
28.10.2020 14:00:00 15,0 7,0 22 12 SW 10
28.10.2020 13:00:00 14,0 7,0 29 16 SW 10
28.10.2020 12:00:00 14,0 8,0 29 16 SW 10
28.10.2020 11:00:00 13,0 8,0 26 14 SW 10
28.10.2020 10:00:00 13,0 10,0 16 9 SW 10
28.10.2020 09:00:00 12,0 9,0 15 8 SW 10
28.10.2020 08:00:00 11,0 9,0 11 6 SW 10
28.10.2020 07:00:00 11,0 9,0 9 5 SSW 10
28.10.2020 06:00:00 11,0 10,0 8 4 SSW 10
28.10.2020 05:00:00 11,0 10,0 8 4 SSW 10
28.10.2020 04:00:00 12,0 10,0 9 5 SSW 10
28.10.2020 03:00:00 12,0 10,0 15 8 SW 10
28.10.2020 02:00:00 12,0 10,0 16 9 SW 10
28.10.2020 01:00:00 13,0 9,0 22 12 SW 10
28.10.2020 00:00:00 12,0 9,0 21 11 SW 10
27.10.2020 23:00:00 12,0 8,0 13 7 S 10
27.10.2020 22:00:00 12,0 7,0 15 8 S 10
27.10.2020 21:00:00 11,0 7,0 13 7 S 10
27.10.2020 20:00:00 10,0 7,0 15 8 SSE 10
27.10.2020 19:00:00 11,0 6,0 15 8 S 10
27.10.2020 18:00:00 12,0 6,0 15 8 S 10
27.10.2020 17:00:00 12,0 6,0 18 10 SSW 10
27.10.2020 16:00:00 12,0 6,0 21 11 SSW 10
27.10.2020 15:00:00 12,0 7,0 16 9 SSW 10
27.10.2020 14:00:00 12,0 6,0 24 13 SSW 10
27.10.2020 13:00:00 12,0 7,0 18 10 SW 10
27.10.2020 12:00:00 12,0 7,0 22 12 SW 10
27.10.2020 11:00:00 12,0 7,0 18 10 SW 10
27.10.2020 10:00:00 11,0 7,0 15 8 SSW 10
27.10.2020 09:00:00 10,0 7,0 9 5 SSW 10
27.10.2020 08:00:00 9,0 7,0 9 5 SSW 10
27.10.2020 07:00:00 9,0 7,0 11 6 SW 10
27.10.2020 06:00:00 9,0 7,0 11 6 SSW 10
27.10.2020 05:00:00 10,0 7,0 13 7 SSW 10
27.10.2020 04:00:00 10,0 7,0 11 6 S 10
27.10.2020 03:00:00 9,0 7,0 11 6 SSW 10
27.10.2020 02:00:00 9,0 6,0 11 6 SSW 10
27.10.2020 01:00:00 10,0 7,0 16 9 SW 10
27.10.2020 00:00:00 10,0 7,0 15 8 SSW 10
26.10.2020 23:00:00 11,0 6,0 16 9 SSW 10
26.10.2020 22:00:00 - - - - - -
26.10.2020 21:00:00 10,0 7,0 11 6 S 10
26.10.2020 20:00:00 11,0 7,0 13 7 S 10
26.10.2020 19:00:00 11,0 6,0 18 10 SSW 10
26.10.2020 18:00:00 11,0 6,0 11 6 S 10
26.10.2020 17:00:00 12,0 6,0 15 8 SSW 10
26.10.2020 16:00:00 12,0 6,0 13 7 SSW 10
26.10.2020 15:00:00 12,0 6,0 15 8 SSW 10
26.10.2020 14:00:00 12,0 6,0 15 8 SW 10
26.10.2020 13:00:00 11,0 6,0 16 9 SSW 10
26.10.2020 12:00:00 11,0 6,0 28 15 SW 10
26.10.2020 11:00:00 11,0 7,0 22 12 SW 10
26.10.2020 10:00:00 10,0 7,0 15 8 SW 10
26.10.2020 09:00:00 10,0 8,0 11 6 SW 10
26.10.2020 08:00:00 9,0 8,0 8 4 S 10
26.10.2020 07:00:00 9,0 8,0 5 3 S 10
26.10.2020 06:00:00 10,0 8,0 4 2 - 10
26.10.2020 05:00:00 11,0 8,0 8 4 S 10
26.10.2020 04:00:00 11,0 8,0 11 6 SSW 10
26.10.2020 03:00:00 11,0 9,0 9 5 SSW 10
26.10.2020 02:00:00 11,0 9,0 8 4 S 10
26.10.2020 01:00:00 11,0 9,0 5 3 S 10
26.10.2020 00:00:00 10,0 8,0 8 4 SSE 10
25.10.2020 23:00:00 11,0 9,0 8 4 S 10
25.10.2020 22:00:00 11,0 9,0 8 4 S 10
25.10.2020 21:00:00 11,0 10,0 5 3 S 10
25.10.2020 20:00:00 12,0 10,0 9 5 S 10
25.10.2020 19:00:00 12,0 10,0 5 3 SSW 10
25.10.2020 18:00:00 12,0 11,0 8 4 S 10
25.10.2020 17:00:00 12,0 11,0 9 5 S 10
25.10.2020 16:00:00 12,0 10,0 8 4 S 10
25.10.2020 15:00:00 12,0 11,0 11 6 SSW 10
25.10.2020 14:00:00 13,0 11,0 15 8 S 10
25.10.2020 13:00:00 13,0 12,0 11 6 SSW 10
25.10.2020 12:00:00 13,0 11,0 9 5 SW 7
25.10.2020 11:00:00 13,0 11,0 9 5 S 10
25.10.2020 10:00:00 14,0 10,0 11 6 S 10
25.10.2020 09:00:00 14,0 10,0 13 7 S 10
25.10.2020 08:00:00 14,0 10,0 13 7 S 10
25.10.2020 07:00:00 15,0 10,0 18 10 S 10
25.10.2020 06:00:00 15,0 10,0 18 10 S 10
25.10.2020 05:00:00 15,0 10,0 16 9 S 10
25.10.2020 04:00:00 15,0 10,0 21 11 S 10
25.10.2020 03:00:00 15,0 11,0 18 10 S 10
25.10.2020 02:00:00 16,0 11,0 18 10 S 10
25.10.2020 01:00:00 - - - - - -
25.10.2020 00:00:00 15,0 11,0 13 7 - 10
24.10.2020 23:00:00 15,0 11,0 13 7 S 10
24.10.2020 22:00:00 14,0 11,0 13 7 S 10
24.10.2020 21:00:00 14,0 11,0 11 6 S 10
24.10.2020 20:00:00 14,0 11,0 11 6 S 10
24.10.2020 19:00:00 15,0 11,0 16 9 S 10
24.10.2020 18:00:00 15,0 11,0 15 8 S 10
24.10.2020 17:00:00 15,0 11,0 16 9 S 10
24.10.2020 16:00:00 16,0 11,0 16 9 S 10
24.10.2020 15:00:00 16,0 11,0 13 7 SSW 10
24.10.2020 14:00:00 16,0 11,0 18 10 SSW 10
24.10.2020 13:00:00 15,0 10,0 18 10 SW 10
24.10.2020 12:00:00 14,0 11,0 15 8 SSW 10
24.10.2020 11:00:00 14,0 11,0 18 10 SSW 10

tt = temperature
td = dewpoint
ff = wind speed
dd = wind direction
vv = visibility

Next stations